createdAt,value
2018-02-12T00:00:39.073Z,2.40
2018-02-12T00:03:06.468Z,2.43
2018-02-12T00:05:33.892Z,1.73
2018-02-12T00:20:09.105Z,1.70
2018-02-12T00:22:36.521Z,1.80
2018-02-12T00:25:03.945Z,1.80
2018-02-12T00:27:31.365Z,1.30
2018-02-12T00:29:58.767Z,1.63
2018-02-12T00:32:26.743Z,1.70
2018-02-12T00:34:54.168Z,1.80
2018-02-12T00:37:21.582Z,1.83
2018-02-12T00:39:49.014Z,2.10
2018-02-12T00:42:16.425Z,2.10
2018-02-12T00:44:43.861Z,2.45
2018-02-12T00:47:11.278Z,3.63
2018-02-12T00:49:38.692Z,6.50
2018-02-12T00:52:06.141Z,5.50
2018-02-12T00:54:33.548Z,5.60
2018-02-12T00:57:00.966Z,6.30
2018-02-12T00:59:28.385Z,2.10
2018-02-12T01:01:55.796Z,1.83
2018-02-12T01:04:23.213Z,2.30
2018-02-12T01:06:50.653Z,1.80
2018-02-12T01:09:18.054Z,1.30
2018-02-12T01:11:45.508Z,1.50
2018-02-12T01:14:13.021Z,1.50
2018-02-12T01:16:40.478Z,1.47
2018-02-12T01:19:07.885Z,1.43
2018-02-12T01:21:35.293Z,1.40
2018-02-12T01:24:02.710Z,1.30
2018-02-12T01:26:30.106Z,1.63
2018-02-12T01:28:58.197Z,1.60
2018-02-12T01:31:25.617Z,1.20
2018-02-12T01:33:53.018Z,2.13
2018-02-12T01:36:20.426Z,1.43
2018-02-12T01:38:47.885Z,1.60
2018-02-12T01:41:15.293Z,1.63
2018-02-12T01:43:42.717Z,1.30
2018-02-12T01:46:10.130Z,1.53
2018-02-12T01:48:37.580Z,1.60
2018-02-12T01:51:04.975Z,1.57
2018-02-12T01:53:32.398Z,1.80
2018-02-12T01:55:59.797Z,1.70
2018-02-12T01:58:27.205Z,1.70
2018-02-12T02:00:54.609Z,2.73
2018-02-12T02:03:22.060Z,1.65
2018-02-12T02:05:49.697Z,1.87
2018-02-12T02:08:17.108Z,2.07
2018-02-12T02:10:44.513Z,1.50
2018-02-12T02:13:11.957Z,1.70
2018-02-12T02:15:39.354Z,1.50
2018-02-12T02:18:06.778Z,1.70
2018-02-12T02:20:34.177Z,1.70
2018-02-12T02:23:01.603Z,2.10
2018-02-12T02:25:29.886Z,2.03
2018-02-12T02:27:57.407Z,1.40
2018-02-12T02:30:24.877Z,1.63
2018-02-12T02:32:52.277Z,1.47
2018-02-12T02:35:19.695Z,1.53
2018-02-12T02:37:47.125Z,1.67
2018-02-12T02:40:14.543Z,1.40
2018-02-12T02:42:41.941Z,1.67
2018-02-12T02:45:09.363Z,1.40
2018-02-12T02:47:36.796Z,2.10
2018-02-12T02:50:04.205Z,1.77
2018-02-12T02:52:31.642Z,1.60
2018-02-12T02:54:59.061Z,2.13
2018-02-12T02:57:26.461Z,1.70
2018-02-12T02:59:53.898Z,1.60
2018-02-12T03:02:21.306Z,1.57
2018-02-12T03:04:48.725Z,1.90
2018-02-12T03:07:16.186Z,1.80
2018-02-12T03:09:43.618Z,2.30
2018-02-12T03:12:11.047Z,1.67
2018-02-12T03:14:38.480Z,1.93
2018-02-12T03:17:05.889Z,1.77
2018-02-12T03:19:33.308Z,1.60
2018-02-12T03:22:01.604Z,1.85
2018-02-12T03:24:29.018Z,2.17
2018-02-12T03:26:56.414Z,2.87
2018-02-12T03:29:23.841Z,1.90
2018-02-12T03:31:51.257Z,2.00
2018-02-12T03:34:18.670Z,1.90
2018-02-12T03:36:46.098Z,1.80
2018-02-12T03:39:13.511Z,1.90
2018-02-12T03:41:40.965Z,2.15
2018-02-12T03:44:08.363Z,2.07
2018-02-12T03:46:35.781Z,2.33
2018-02-12T03:49:03.296Z,2.22
2018-02-12T03:51:30.697Z,2.20
2018-02-12T03:53:58.128Z,1.57
2018-02-12T03:56:25.589Z,4.00
2018-02-12T03:58:52.993Z,2.50
2018-02-12T04:01:20.394Z,3.00
2018-02-12T04:03:47.790Z,2.20
2018-02-12T04:06:15.218Z,1.97
2018-02-12T04:08:42.633Z,2.47
2018-02-12T04:11:10.124Z,2.30
2018-02-12T04:13:37.559Z,2.40
2018-02-12T04:16:05.026Z,2.97
2018-02-12T04:18:33.316Z,3.92
2018-02-12T04:21:00.744Z,2.87
2018-02-12T04:23:28.174Z,2.20
2018-02-12T04:25:55.588Z,2.00
2018-02-12T04:28:22.989Z,2.53
2018-02-12T04:30:50.491Z,3.73
2018-02-12T04:33:17.899Z,2.27
2018-02-12T04:35:45.317Z,2.43
2018-02-12T04:38:12.733Z,3.17
2018-02-12T04:40:40.177Z,2.60
2018-02-12T04:43:07.589Z,2.83
2018-02-12T04:45:34.992Z,2.90
2018-02-12T04:48:02.412Z,2.50
2018-02-12T04:50:29.839Z,2.80
2018-02-12T04:52:57.266Z,3.60
2018-02-12T04:55:24.678Z,2.67
2018-02-12T04:57:52.131Z,2.80
2018-02-12T05:00:19.523Z,2.60
2018-02-12T05:02:46.938Z,2.27
2018-02-12T05:05:14.341Z,2.33
2018-02-12T05:07:41.784Z,2.60
2018-02-12T05:10:09.186Z,3.20
2018-02-12T05:12:36.593Z,2.13
2018-02-12T05:15:04.017Z,2.40
2018-02-12T05:17:31.499Z,2.67
2018-02-12T05:19:58.906Z,2.27
2018-02-12T05:22:26.310Z,3.15
2018-02-12T05:24:53.717Z,2.53
2018-02-12T05:27:21.132Z,2.50
2018-02-12T05:29:48.543Z,2.00
2018-02-12T05:32:15.981Z,2.80
2018-02-12T05:34:43.438Z,2.23
2018-02-12T05:37:10.844Z,2.12
2018-02-12T05:39:38.295Z,2.50
2018-02-12T05:42:06.303Z,2.20
2018-02-12T05:44:33.706Z,2.20
2018-02-12T05:47:01.126Z,2.33
2018-02-12T05:49:28.532Z,2.10
2018-02-12T05:51:55.966Z,2.10
2018-02-12T05:54:23.366Z,2.13
2018-02-12T05:56:50.781Z,1.97
2018-02-12T05:59:18.186Z,2.20
2018-02-12T06:01:45.598Z,2.03
2018-02-12T06:04:13.063Z,3.20
2018-02-12T06:06:40.499Z,2.10
2018-02-12T06:09:07.901Z,2.07
2018-02-12T06:11:35.318Z,2.60
2018-02-12T06:14:02.737Z,3.13
2018-02-12T06:16:30.137Z,2.60
2018-02-12T06:18:57.601Z,3.90
2018-02-12T06:21:24.996Z,3.00
2018-02-12T06:23:52.417Z,2.60
2018-02-12T06:26:19.907Z,2.60
2018-02-12T06:28:53.170Z,3.10
2018-02-12T06:31:20.565Z,2.43
2018-02-12T06:33:47.969Z,2.97
2018-02-12T06:36:15.412Z,2.43
2018-02-12T06:38:42.822Z,2.77
2018-02-12T06:41:10.254Z,3.17
2018-02-12T06:43:38.624Z,2.70
2018-02-12T06:46:06.064Z,2.30
2018-02-12T06:48:33.472Z,2.33
2018-02-12T06:51:00.885Z,3.20
2018-02-12T06:53:28.304Z,3.13
2018-02-12T06:55:55.751Z,2.43
2018-02-12T06:58:23.219Z,4.47
2018-02-12T07:00:50.660Z,4.93
2018-02-12T07:03:18.088Z,4.73
2018-02-12T07:05:45.498Z,2.97
2018-02-12T07:08:12.922Z,4.40
2018-02-12T07:10:40.355Z,2.63
2018-02-12T07:13:07.769Z,2.50
2018-02-12T07:15:35.180Z,4.27
2018-02-12T07:18:02.590Z,2.90
2018-02-12T07:20:30.029Z,3.70
2018-02-12T07:22:57.430Z,2.93
2018-02-12T07:25:24.828Z,2.70
2018-02-12T07:27:52.234Z,3.00
2018-02-12T07:30:19.680Z,2.87
2018-02-12T07:32:47.100Z,3.77
2018-02-12T07:35:14.502Z,3.30
2018-02-12T07:37:41.927Z,4.10
2018-02-12T07:40:09.345Z,4.57
2018-02-12T07:42:36.835Z,4.13
2018-02-12T07:45:04.266Z,4.70
2018-02-12T07:47:31.776Z,4.00
2018-02-12T07:49:59.184Z,4.22
2018-02-12T07:52:26.584Z,5.03
2018-02-12T07:54:53.996Z,4.97
2018-02-12T07:57:21.398Z,4.20
2018-02-12T07:59:48.803Z,4.60
2018-02-12T08:02:16.213Z,4.50
2018-02-12T08:04:43.625Z,3.77
2018-02-12T08:07:11.028Z,5.20
2018-02-12T08:09:38.475Z,4.50
2018-02-12T08:12:05.928Z,6.00
2018-02-12T08:14:33.290Z,3.60
2018-02-12T08:17:00.707Z,5.07
2018-02-12T08:19:28.152Z,4.77
2018-02-12T08:21:55.560Z,5.20
2018-02-12T08:24:23.017Z,4.57
2018-02-12T08:26:50.439Z,4.03
2018-02-12T08:29:17.842Z,4.87
2018-02-12T08:31:45.267Z,3.80
2018-02-12T08:34:13.378Z,3.33
2018-02-12T08:36:40.796Z,3.10
2018-02-12T08:39:08.193Z,3.53
2018-02-12T08:41:35.622Z,3.30
2018-02-12T08:44:03.022Z,4.00
2018-02-12T08:46:30.514Z,4.30
2018-02-12T08:48:57.914Z,3.80
2018-02-12T08:51:25.375Z,2.20
2018-02-12T08:53:52.765Z,2.70
2018-02-12T08:56:20.181Z,3.65
2018-02-12T08:58:47.577Z,4.60
2018-02-12T09:01:14.998Z,2.77
2018-02-12T09:03:42.408Z,2.67
2018-02-12T09:06:09.847Z,3.53
2018-02-12T09:08:37.292Z,4.90
2018-02-12T09:11:04.762Z,2.90
2018-02-12T09:13:32.157Z,2.17
2018-02-12T09:15:59.590Z,2.63
2018-02-12T09:18:26.996Z,3.40
2018-02-12T09:20:54.406Z,7.50
2018-02-12T09:23:21.826Z,4.40
2018-02-12T09:25:49.270Z,3.30
2018-02-12T09:28:16.752Z,7.37
2018-02-12T09:30:44.188Z,4.40
2018-02-12T09:33:11.601Z,2.63
2018-02-12T09:35:39.014Z,2.83
2018-02-12T09:38:06.441Z,2.60
2018-02-12T09:40:33.854Z,2.77
2018-02-12T09:43:01.267Z,2.10
2018-02-12T09:45:28.680Z,2.30
2018-02-12T09:47:56.100Z,2.87
2018-02-12T09:50:23.506Z,3.47
2018-02-12T09:52:50.914Z,3.10
2018-02-12T09:55:18.340Z,4.27
2018-02-12T09:57:45.777Z,3.57
2018-02-12T10:00:13.218Z,2.22
2018-02-12T10:02:40.637Z,4.50
2018-02-12T10:05:08.044Z,2.47
2018-02-12T10:07:35.497Z,2.80
2018-02-12T10:10:02.900Z,2.60
2018-02-12T10:12:30.316Z,2.00
2018-02-12T10:14:57.712Z,2.30
2018-02-12T10:17:25.128Z,2.33
2018-02-12T10:19:52.530Z,2.47
2018-02-12T10:22:19.950Z,2.63
2018-02-12T10:24:47.341Z,2.80
2018-02-12T10:27:14.768Z,2.33
2018-02-12T10:29:42.158Z,1.90
2018-02-12T10:32:09.566Z,5.70
2018-02-12T10:34:37.020Z,2.57
2018-02-12T10:37:04.429Z,3.13
2018-02-12T10:39:31.859Z,2.23
2018-02-12T10:41:59.254Z,2.30
2018-02-12T10:44:26.665Z,2.00
2018-02-12T10:46:54.083Z,2.50
2018-02-12T10:49:21.522Z,2.20
2018-02-12T10:51:50.029Z,2.85
2018-02-12T10:54:17.522Z,3.77
2018-02-12T10:56:44.929Z,2.23
2018-02-12T10:59:12.368Z,3.03
2018-02-12T11:01:39.757Z,2.73
2018-02-12T11:04:07.177Z,1.93
2018-02-12T11:06:34.578Z,2.20
2018-02-12T11:09:01.995Z,2.47
2018-02-12T11:11:29.392Z,1.60
2018-02-12T11:13:56.820Z,2.23
2018-02-12T11:16:24.228Z,2.58
2018-02-12T11:18:51.657Z,2.80
2018-02-12T11:21:19.055Z,2.30
2018-02-12T11:23:46.468Z,1.90
2018-02-12T11:26:13.874Z,1.77
2018-02-12T11:28:41.346Z,2.00
2018-02-12T11:31:08.782Z,1.90
2018-02-12T11:33:36.184Z,1.90
2018-02-12T11:36:03.582Z,1.60
2018-02-12T11:38:31.013Z,1.93
2018-02-12T11:40:58.513Z,1.52
2018-02-12T11:43:25.916Z,1.57
2018-02-12T11:45:53.331Z,1.60
2018-02-12T11:48:20.744Z,1.80
2018-02-12T11:50:48.174Z,1.27
2018-02-12T11:53:15.576Z,1.50
2018-02-12T11:55:43.005Z,1.30
2018-02-12T11:58:10.426Z,3.93
2018-02-12T12:00:37.842Z,2.37
2018-02-12T12:03:05.301Z,2.70
2018-02-12T12:05:32.705Z,1.93
2018-02-12T12:08:00.121Z,1.90
2018-02-12T12:10:27.532Z,3.10
2018-02-12T12:12:54.926Z,2.47
2018-02-12T12:15:23.225Z,2.53
2018-02-12T12:17:50.635Z,2.00
2018-02-12T12:20:18.053Z,2.13
2018-02-12T12:22:45.456Z,2.30
2018-02-12T12:25:12.900Z,3.10
2018-02-12T12:27:40.301Z,1.92
2018-02-12T12:30:07.709Z,2.67
2018-02-12T12:32:35.112Z,2.07
2018-02-12T12:35:02.543Z,2.95
2018-02-12T12:37:29.949Z,2.00
2018-02-12T12:39:57.363Z,1.60
2018-02-12T12:42:24.764Z,1.73
2018-02-12T12:44:52.181Z,1.93
2018-02-12T12:47:22.172Z,2.03
2018-02-12T12:49:47.098Z,3.10
2018-02-12T12:52:14.513Z,1.87
2018-02-12T12:54:41.913Z,2.70
2018-02-12T12:57:09.381Z,3.63
2018-02-12T12:59:36.785Z,2.73
2018-02-12T13:02:04.214Z,3.10
2018-02-12T13:04:31.616Z,3.37
2018-02-12T13:06:59.022Z,4.10
2018-02-12T13:09:26.412Z,4.93
2018-02-12T13:11:54.498Z,4.72
2018-02-12T13:14:21.913Z,4.70
2018-02-12T13:16:49.328Z,4.30
2018-02-12T13:19:16.721Z,4.03
2018-02-12T13:21:44.131Z,4.00
2018-02-12T13:24:11.530Z,4.00
2018-02-12T13:29:12.885Z,3.67
2018-02-12T13:31:40.694Z,3.47
2018-02-12T13:34:08.089Z,3.83
2018-02-12T13:36:35.569Z,2.93
2018-02-12T13:39:02.973Z,2.05
2018-02-12T13:41:30.391Z,2.40
2018-02-12T13:43:57.782Z,1.93
2018-02-12T13:46:25.371Z,2.12
2018-02-12T13:48:52.757Z,2.33
2018-02-12T13:51:20.220Z,2.67
2018-02-12T13:53:47.656Z,2.30
2018-02-12T13:56:15.117Z,3.30
2018-02-12T13:58:42.532Z,3.30
2018-02-12T14:01:09.924Z,5.00
2018-02-12T14:03:37.339Z,3.20
2018-02-12T14:06:04.737Z,3.30
2018-02-12T14:08:32.154Z,2.70
2018-02-12T14:10:59.561Z,3.63
2018-02-12T14:13:27.076Z,2.87
2018-02-12T14:15:54.464Z,2.77
2018-02-12T14:18:21.877Z,2.47
2018-02-12T14:20:49.277Z,4.00
2018-02-12T14:23:16.699Z,2.97
2018-02-12T14:25:44.147Z,3.80
2018-02-12T14:28:11.627Z,2.33
2018-02-12T14:30:39.073Z,3.80
2018-02-12T14:33:06.487Z,10.20
2018-02-12T14:35:33.916Z,10.50
2018-02-12T14:38:01.370Z,4.40
2018-02-12T14:40:28.765Z,4.20
2018-02-12T14:42:56.679Z,3.75
2018-02-12T14:45:24.117Z,4.57
2018-02-12T14:47:51.529Z,3.90
2018-02-12T14:50:18.945Z,3.90
2018-02-12T14:52:46.376Z,4.20
2018-02-12T14:55:13.778Z,3.57
2018-02-12T14:57:41.209Z,5.13
2018-02-12T15:00:08.621Z,3.90
2018-02-12T15:02:36.103Z,3.45
2018-02-12T15:05:03.546Z,2.73
2018-02-12T15:07:30.953Z,4.77
2018-02-12T15:09:58.360Z,5.93
2018-02-12T15:12:25.772Z,5.33
2018-02-12T15:14:53.174Z,3.60
2018-02-12T15:17:20.578Z,4.57
2018-02-12T15:19:48.003Z,3.30
2018-02-12T15:22:15.426Z,2.85
2018-02-12T15:24:43.292Z,4.27
2018-02-12T15:27:10.690Z,3.58
2018-02-12T15:29:38.123Z,4.10
2018-02-12T15:32:05.526Z,2.57
2018-02-12T15:34:33.005Z,5.87
2018-02-12T15:37:00.422Z,3.03
2018-02-12T15:39:28.290Z,4.30
2018-02-12T15:41:55.690Z,3.27
2018-02-12T15:44:23.100Z,2.97
2018-02-12T15:46:50.599Z,3.50
2018-02-12T15:49:18.013Z,4.33
2018-02-12T15:51:45.417Z,3.67
2018-02-12T15:54:12.854Z,3.93
2018-02-12T15:56:40.298Z,2.30
2018-02-12T15:59:07.708Z,2.20
2018-02-12T16:01:35.116Z,4.40
2018-02-12T16:04:02.538Z,3.00
2018-02-12T16:06:29.946Z,3.03
2018-02-12T16:08:57.382Z,2.97
2018-02-12T16:11:24.805Z,2.57
2018-02-12T16:13:52.289Z,5.20
2018-02-12T16:16:19.730Z,3.70
2018-02-12T16:18:47.160Z,4.47
2018-02-12T16:21:14.571Z,6.97
2018-02-12T16:23:41.971Z,3.97
2018-02-12T16:26:09.440Z,6.03
2018-02-12T16:28:36.942Z,4.37
2018-02-12T16:31:04.384Z,4.30
2018-02-12T16:33:31.829Z,4.40
2018-02-12T16:35:59.742Z,4.62
2018-02-12T16:38:27.141Z,4.60
2018-02-12T16:40:54.557Z,4.10
2018-02-12T16:43:21.964Z,3.60
2018-02-12T16:45:49.385Z,4.40
2018-02-12T16:48:16.786Z,5.50
2018-02-12T16:50:44.229Z,3.90
2018-02-12T16:53:11.652Z,4.17
2018-02-12T16:55:39.083Z,3.70
2018-02-12T16:58:06.628Z,3.30
2018-02-12T17:00:33.993Z,3.20
2018-02-12T17:03:01.394Z,3.83
2018-02-12T17:05:29.813Z,3.70
2018-02-12T17:07:57.231Z,5.40
2018-02-12T17:10:24.707Z,3.62
2018-02-12T17:12:52.124Z,6.43
2018-02-12T17:15:19.598Z,5.00
2018-02-12T17:17:47.037Z,5.20
2018-02-12T17:20:14.517Z,4.57
2018-02-12T17:22:42.602Z,6.30
2018-02-12T17:25:10.014Z,5.40
2018-02-12T17:27:37.427Z,7.63
2018-02-12T17:30:04.823Z,7.30
2018-02-12T17:32:32.237Z,11.82
2018-02-12T17:34:59.670Z,7.93
2018-02-12T17:37:27.087Z,7.83
2018-02-12T17:39:54.484Z,8.65
2018-02-12T17:42:21.941Z,8.80
2018-02-12T17:44:49.389Z,11.30
2018-02-12T17:47:16.805Z,13.05
2018-02-12T17:49:44.273Z,10.23
2018-02-12T17:52:11.753Z,8.03
2018-02-12T17:54:39.153Z,7.37
2018-02-12T17:57:06.627Z,7.10
2018-02-12T17:59:34.025Z,6.60
2018-02-12T18:02:02.418Z,9.80
2018-02-12T18:04:29.858Z,8.83
2018-02-12T18:06:57.278Z,6.60
2018-02-12T18:09:24.692Z,5.80
2018-02-12T18:11:52.114Z,5.13
2018-02-12T18:14:19.533Z,5.83
2018-02-12T18:16:46.955Z,5.90
2018-02-12T18:19:14.370Z,6.73
2018-02-12T18:21:41.805Z,5.90
2018-02-12T18:24:09.233Z,6.67
2018-02-12T18:26:36.647Z,6.20
2018-02-12T18:29:04.071Z,5.18
2018-02-12T18:31:31.469Z,7.33
2018-02-12T18:33:58.895Z,4.30
2018-02-12T18:36:26.307Z,3.92
2018-02-12T18:38:53.898Z,4.00
2018-02-12T18:41:21.308Z,4.50
2018-02-12T18:43:48.716Z,4.73
2018-02-12T18:46:16.120Z,5.30
2018-02-12T18:48:43.525Z,6.30
2018-02-12T18:51:10.932Z,6.20
2018-02-12T18:53:38.355Z,5.00
2018-02-12T18:56:05.815Z,3.70
2018-02-12T18:58:33.200Z,4.50
2018-02-12T19:01:00.603Z,5.10
2018-02-12T19:03:28.068Z,3.43
2018-02-12T19:05:55.481Z,4.33
2018-02-12T19:08:22.937Z,4.50
2018-02-12T19:10:50.297Z,4.60
2018-02-12T19:13:17.735Z,4.60
2018-02-12T19:15:45.183Z,5.70
2018-02-12T19:18:12.645Z,4.50
2018-02-12T19:20:40.076Z,5.60
2018-02-12T19:23:07.497Z,8.80
2018-02-12T19:25:35.166Z,9.40
2018-02-12T19:28:02.628Z,12.17
2018-02-12T19:30:30.041Z,12.07
2018-02-12T19:32:57.481Z,11.80
2018-02-12T19:35:24.895Z,9.37
2018-02-12T19:37:52.320Z,10.03
2018-02-12T19:40:19.744Z,10.10
2018-02-12T19:42:47.157Z,11.00
2018-02-12T19:45:14.602Z,11.73
2018-02-12T19:47:42.113Z,12.40
2018-02-12T19:50:09.549Z,12.13
2018-02-12T19:52:37.055Z,10.57
2018-02-12T19:55:04.469Z,10.87
2018-02-12T19:57:31.964Z,9.80
2018-02-12T19:59:59.341Z,9.40
2018-02-12T20:02:26.766Z,8.40
2018-02-12T20:04:54.185Z,7.80
2018-02-12T20:07:21.611Z,5.90
2018-02-12T20:09:49.110Z,6.17
2018-02-12T20:12:16.528Z,6.93
2018-02-12T20:14:43.939Z,6.70
2018-02-12T20:17:11.351Z,6.97
2018-02-12T20:19:38.777Z,8.43
2018-02-12T20:22:07.253Z,6.25
2018-02-12T20:24:34.685Z,6.20
2018-02-12T20:27:02.125Z,6.87
2018-02-12T20:29:29.581Z,5.80
2018-02-12T20:31:56.966Z,5.23
2018-02-12T20:34:24.378Z,4.70
2018-02-12T20:36:51.795Z,5.27
2018-02-12T20:39:19.213Z,6.10
2018-02-12T20:41:46.622Z,6.00
2018-02-12T20:44:14.052Z,13.77
2018-02-12T20:46:41.466Z,11.30
2018-02-12T20:49:08.886Z,10.40
2018-02-12T20:51:36.320Z,11.17
2018-02-12T20:54:03.729Z,8.87
2018-02-12T20:56:31.172Z,8.97
2018-02-12T20:58:58.577Z,7.80
2018-02-12T21:01:25.996Z,7.10
2018-02-12T21:03:53.410Z,7.67
2018-02-12T21:06:20.861Z,7.68
2018-02-12T21:08:48.265Z,8.07
2018-02-12T21:11:15.713Z,7.03
2018-02-12T21:13:43.160Z,8.00
2018-02-12T21:16:10.590Z,6.83
2018-02-12T21:18:38.002Z,7.23
2018-02-12T21:21:05.426Z,8.32
2018-02-12T21:23:32.887Z,6.90
2018-02-12T21:26:00.297Z,7.30
2018-02-12T21:28:27.705Z,6.93
2018-02-12T21:30:55.117Z,5.53
2018-02-12T21:33:22.522Z,5.30
2018-02-12T21:35:49.952Z,4.97
2018-02-12T21:38:17.367Z,5.67
2018-02-12T21:40:44.904Z,5.27
2018-02-12T21:43:12.264Z,5.53
2018-02-12T21:45:40.537Z,5.15
2018-02-12T21:48:07.945Z,5.47
2018-02-12T21:50:35.382Z,5.00
2018-02-12T21:53:02.799Z,4.70
2018-02-12T21:55:30.200Z,5.83
2018-02-12T21:57:57.614Z,4.73
2018-02-12T22:02:38.727Z,7.68
2018-02-12T22:05:06.133Z,6.50
2018-02-12T22:07:33.539Z,7.00
2018-02-12T22:10:00.940Z,6.20
2018-02-12T22:12:28.348Z,6.70
2018-02-12T22:14:55.768Z,7.30
2018-02-12T22:17:23.187Z,6.60
2018-02-12T22:19:50.601Z,7.07
2018-02-12T22:22:18.008Z,6.20
2018-02-12T22:24:45.420Z,6.63
2018-02-12T22:27:12.828Z,7.27
2018-02-12T22:29:40.229Z,6.40
2018-02-12T22:32:07.647Z,6.43
2018-02-12T22:34:35.052Z,8.80
2018-02-12T22:37:02.460Z,6.47
2018-02-12T22:39:29.863Z,7.30
2018-02-12T22:41:57.280Z,7.20
2018-02-12T22:46:58.584Z,6.60
2018-02-12T22:49:25.988Z,7.80
2018-02-12T22:51:53.408Z,6.60
2018-02-12T22:54:20.818Z,7.70
2018-02-12T22:56:48.228Z,7.00
2018-02-12T22:59:15.637Z,7.10
2018-02-12T23:01:43.756Z,7.15
2018-02-12T23:04:11.171Z,7.37
2018-02-12T23:06:38.568Z,7.83
2018-02-12T23:09:05.983Z,7.25
2018-02-12T23:11:33.389Z,8.33
2018-02-12T23:14:00.816Z,8.40
2018-02-12T23:16:28.223Z,7.20
2018-02-12T23:18:55.637Z,8.97
2018-02-12T23:21:23.053Z,9.07
2018-02-12T23:23:50.470Z,8.20
2018-02-12T23:26:17.884Z,7.53
2018-02-12T23:28:45.292Z,6.97
2018-02-12T23:31:12.694Z,5.43
2018-02-12T23:33:40.104Z,6.12
2018-02-12T23:36:07.522Z,5.90
2018-02-12T23:38:34.920Z,4.63
2018-02-12T23:41:02.335Z,4.60
2018-02-12T23:43:29.748Z,4.40
2018-02-12T23:45:57.155Z,5.00
2018-02-12T23:48:24.569Z,4.70
2018-02-12T23:50:51.964Z,4.15
2018-02-12T23:53:19.386Z,4.37
2018-02-12T23:55:46.784Z,4.57
2018-02-12T23:58:14.206Z,4.60
